Terminal Aerodrome Forecast
Issued by NWS Cleveland, OH

Home | Current Version | Previous Version | Graphics & Text | Print | Product List | Glossary On
Versions: 1 2 3 4 5 6 7 8 9 10 11 12 13 14 15 16 17 18 19 20 21 22 23 24
000
FTUS41 KCLE 171000 AAB
TAFMFD
TAF AMD
KMFD 171036Z 1711/1806 19010KT P6SM SCT015 OVC025
      TEMPO 1711/1714 SCT009 BKN015 OVC025
     FM171500 21015G22KT P6SM BKN025
     FM171700 21015G25KT P6SM BKN050
     FM180000 23012KT P6SM VCSH OVC035
     FM180400 27015KT P6SM VCSH OVC020=

USA.gov is the U.S. government's official web portal to all federal, state and local government web resources and services.